Stations météo

réclame
Mon MeteoGroup
Ernage, Belgique (6459): Température de l'air & dewpoint: 19.05.2018 13:00:00 - 25.05.2018 13:00:00 (CEST)Ernage, Belgique (6459): Vitesse du vent & gusts: 19.05.2018 13:00:00 - 25.05.2018 13:00:00 (CEST)Ernage, Belgique (6459): Direction du vent: 19.05.2018 13:00:00 - 25.05.2018 13:00:00 (CEST)Ernage, Belgique (6459): reduced air pressure: 19.05.2018 13:00:00 - 25.05.2018 13:00:00 (CEST)Ernage, Belgique (6459): Ensoleillement: 19.05.2018 13:00:00 - 25.05.2018 13:00:00 (CEST)Ernage, Belgique (6459): Quantités de précipitations: 19.05.2018 13:00:00 - 25.05.2018 13:00:00 (CEST)
Date & Time tt [°C] td [°C] ff [km/h] ff [knt] fx [km/h] fx [knt] dd ppp [hPa] sd [min] rr [mm]
25.05.2018 13:00:00 - - - - - - - - - -
25.05.2018 12:00:00 21,4 15,9 5 3 18 10 SE 1018,0 60 0,0
25.05.2018 11:00:00 20,2 16,4 4 2 9 5 ENE 1018,0 60 0,0
25.05.2018 10:00:00 18,5 16,1 4 2 11 6 W 1018,1 60 0,0
25.05.2018 09:00:00 16,8 15,1 9 5 13 7 SSW 1018,2 60 0,0
25.05.2018 08:00:00 15,6 15,5 7 4 10 6 S 1018,0 60 0,0
25.05.2018 07:00:00 13,5 13,5 5 3 8 4 SE 1017,7 27 0,0
25.05.2018 06:00:00 12,8 12,8 6 3 9 5 SE 1017,5 0 0,0
25.05.2018 05:00:00 12,6 12,5 5 3 8 4 ESE 1017,3 0 0,0
25.05.2018 04:00:00 13,4 13,2 4 2 8 5 SE 1017,2 0 0,0
25.05.2018 03:00:00 13,5 13,0 5 3 8 5 SE 1017,2 0 0,0
25.05.2018 02:00:00 14,4 13,9 4 2 7 4 SE 1017,2 0 0,0
25.05.2018 01:00:00 15,0 13,8 4 2 20 11 W 1017,5 0 0,0
25.05.2018 00:00:00 16,3 15,5 6 4 11 6 S 1017,5 0 0,0
24.05.2018 23:00:00 17,2 15,7 9 5 14 7 S 1017,0 0 0,0
24.05.2018 22:00:00 17,5 14,3 6 4 13 7 ESE 1016,8 0 0,0
24.05.2018 21:00:00 18,8 16,2 6 3 8 4 ENE 1016,2 50 0,0
24.05.2018 20:00:00 19,3 16,9 4 2 12 6 W 1016,3 33 0,0
24.05.2018 19:00:00 18,6 17,2 9 5 14 8 NNW 1016,2 0 7,0
24.05.2018 18:00:00 19,1 15,0 4 2 18 10 SSE 1016,5 0 0,0
24.05.2018 17:00:00 21,0 14,9 9 5 18 10 ENE 1016,1 0 0,0
24.05.2018 16:00:00 21,5 14,4 9 5 15 8 NE 1016,0 12 0,0
24.05.2018 15:00:00 22,2 13,8 10 5 18 10 NE 1016,5 45 0,0
24.05.2018 14:00:00 22,4 14,2 11 6 18 10 E 1017,2 29 0,0
24.05.2018 13:00:00 21,4 13,6 10 5 15 8 E 1017,7 60 0,0
24.05.2018 12:00:00 20,4 13,3 9 5 17 9 E 1017,9 60 0,0
24.05.2018 11:00:00 19,1 13,1 14 8 21 11 E 1018,2 60 0,0
24.05.2018 10:00:00 17,5 13,7 13 7 18 10 E 1018,7 43 0,0
24.05.2018 09:00:00 15,3 13,5 10 5 16 9 NE 1018,9 0 0,0
24.05.2018 08:00:00 14,2 13,4 7 4 10 5 ENE 1019,1 0 0,0
24.05.2018 07:00:00 13,4 13,1 5 3 12 7 ENE 1019,0 0 0,0
24.05.2018 06:00:00 13,3 13,0 10 5 14 7 N 1018,9 0 0,0
24.05.2018 05:00:00 13,1 12,8 8 4 14 8 NNE 1019,4 0 0,0
24.05.2018 04:00:00 13,3 13,0 11 6 15 8 N 1019,5 0 0,0
24.05.2018 03:00:00 13,3 13,0 9 5 11 6 N 1019,9 0 0,0
24.05.2018 02:00:00 13,9 13,5 7 4 9 5 N 1020,1 0 0,0
24.05.2018 01:00:00 14,6 13,7 4 2 7 4 W 1020,3 0 0,0
24.05.2018 00:00:00 15,2 13,5 6 3 51 27 S 1020,7 0 0,5
23.05.2018 23:00:00 17,7 16,2 5 3 18 10 E 1019,7 0 0,6
23.05.2018 22:00:00 18,3 15,5 12 6 16 9 NNE 1019,2 0 0,1
23.05.2018 21:00:00 18,8 15,2 7 4 11 6 NNE 1019,1 - -
23.05.2018 20:00:00 20,0 14,7 11 6 24 13 E 1018,8 0 0,0
23.05.2018 19:00:00 20,2 16,2 4 2 18 10 ESE 1018,4 0 0,1
23.05.2018 18:00:00 21,1 14,3 16 8 24 13 E 1018,4 5 0,0
23.05.2018 17:00:00 21,5 13,7 16 9 29 16 ENE 1018,3 31 0,0
23.05.2018 16:00:00 21,5 14,8 14 7 24 13 NE 1018,3 43 0,0
23.05.2018 15:00:00 20,4 15,2 16 9 21 11 NNE 1019,2 26 0,0
23.05.2018 14:00:00 19,5 15,0 11 6 17 9 NE 1019,3 2 0,0
23.05.2018 13:00:00 18,5 14,5 11 6 19 10 NE 1019,4 17 0,0
23.05.2018 12:00:00 17,3 15,0 10 6 15 8 NE 1019,3 1 0,0
23.05.2018 11:00:00 16,4 14,5 10 6 18 10 NNE 1019,4 0 0,0
23.05.2018 10:00:00 16,3 15,0 11 6 21 11 N 1018,9 39 0,0
23.05.2018 09:00:00 14,5 14,3 11 6 18 10 N 1018,8 0 0,0
23.05.2018 08:00:00 14,3 14,2 7 4 12 6 N 1018,5 0 0,0
23.05.2018 07:00:00 13,8 13,8 6 3 8 5 N 1017,6 0 0,0
23.05.2018 06:00:00 13,5 13,5 5 3 8 4 NNE 1017,3 0 0,0
23.05.2018 05:00:00 13,4 13,3 6 3 8 5 N 1017,1 0 0,3
23.05.2018 04:00:00 13,4 13,2 8 4 13 7 NNE 1017,0 0 0,2
23.05.2018 03:00:00 12,9 12,7 7 4 12 6 N 1016,7 0 0,0
23.05.2018 02:00:00 12,6 12,2 11 6 11 6 NNW 1016,4 0 0,0
23.05.2018 01:00:00 13,0 12,2 4 2 10 5 WNW 1016,6 0 0,0
23.05.2018 00:00:00 13,9 12,6 9 5 14 8 N 1016,3 0 0,0
22.05.2018 23:00:00 14,8 12,6 11 6 15 8 N 1016,0 0 0,0
22.05.2018 22:00:00 15,3 11,7 10 5 16 9 NNE 1015,1 0 0,0
22.05.2018 21:00:00 16,3 14,6 4 2 10 6 WSW 1014,8 0 0,0
22.05.2018 20:00:00 17,1 13,9 4 2 22 12 E 1014,0 0 0,0
22.05.2018 19:00:00 17,5 12,0 15 8 31 17 N 1014,5 6 0,0
22.05.2018 18:00:00 18,9 11,5 25 13 39 21 E 1013,2 11 0,0
22.05.2018 17:00:00 22,5 12,9 6 3 16 9 W 1012,3 60 0,0
22.05.2018 16:00:00 21,3 13,6 12 7 23 13 W 1012,4 44 0,0
22.05.2018 15:00:00 22,7 14,6 14 8 22 12 WNW 1012,3 43 0,0
22.05.2018 14:00:00 22,3 15,2 7 4 13 7 WNW 1012,5 60 0,0
22.05.2018 13:00:00 21,1 15,3 8 4 16 8 W 1012,8 56 0,0
22.05.2018 12:00:00 20,1 15,2 6 4 13 7 WNW 1012,9 60 0,0
22.05.2018 11:00:00 19,2 15,5 6 3 12 7 NW 1012,8 60 0,0
22.05.2018 10:00:00 17,7 15,1 6 3 9 5 W 1012,7 60 0,0
22.05.2018 09:00:00 15,8 14,5 8 4 13 7 W 1012,7 59 0,0
22.05.2018 08:00:00 15,0 13,7 7 4 9 5 S 1012,3 59 0,0
22.05.2018 07:00:00 13,0 12,9 4 2 8 4 S 1012,3 9 0,0
22.05.2018 06:00:00 10,8 10,5 4 2 7 4 SSE 1012,2 0 0,0
22.05.2018 05:00:00 11,7 11,3 5 3 9 5 E 1011,9 0 0,0
22.05.2018 04:00:00 11,9 11,0 6 4 13 7 NNW 1012,1 0 0,0
22.05.2018 03:00:00 14,3 13,3 6 3 9 5 S 1011,7 0 0,0
22.05.2018 02:00:00 14,2 12,8 4 2 9 5 SE 1011,9 0 0,0
22.05.2018 01:00:00 15,0 13,1 4 2 7 4 S 1012,2 0 0,0
22.05.2018 00:00:00 15,7 13,6 5 3 13 7 ESE 1012,2 0 0,0
21.05.2018 23:00:00 16,2 13,7 7 4 10 6 NE 1012,1 0 0,0
21.05.2018 22:00:00 17,6 13,9 8 5 14 8 NE 1011,9 0 3,4
21.05.2018 21:00:00 19,9 13,5 9 5 16 9 NE 1011,7 13 0,0
21.05.2018 20:00:00 20,9 12,7 7 4 15 8 ENE 1011,3 22 0,0
21.05.2018 19:00:00 23,1 11,3 4 2 11 6 SSE 1011,3 31 0,0
21.05.2018 18:00:00 22,5 10,6 10 5 19 10 ESE 1011,5 33 0,0
21.05.2018 17:00:00 22,5 12,7 12 6 22 12 NE 1012,0 55 0,0
21.05.2018 16:00:00 22,0 12,7 9 5 22 12 NE 1012,7 59 0,0
21.05.2018 15:00:00 21,0 12,8 12 6 24 13 NE 1013,3 49 0,0
21.05.2018 14:00:00 20,5 12,1 14 8 26 14 E 1013,7 53 0,0
21.05.2018 13:00:00 19,5 12,2 16 8 23 13 E 1014,2 60 0,0
21.05.2018 12:00:00 17,4 11,9 14 8 22 12 ENE 1014,7 56 0,0
21.05.2018 11:00:00 16,2 12,1 14 7 22 12 ENE 1015,3 44 0,0
21.05.2018 10:00:00 15,4 11,8 18 10 24 13 NE 1015,6 21 0,0
21.05.2018 09:00:00 14,3 12,6 14 8 21 11 ENE 1016,0 4 0,0
21.05.2018 08:00:00 13,6 11,9 14 8 22 12 NE 1016,1 0 0,1
21.05.2018 07:00:00 13,2 11,6 18 10 26 14 NE 1016,2 0 0,1
21.05.2018 06:00:00 12,5 12,2 10 6 14 7 NE 1016,7 0 0,3
21.05.2018 05:00:00 12,6 12,0 9 5 - - E 1017,7 0 0,0
21.05.2018 04:00:00 12,3 11,6 8 5 15 8 ENE 1017,6 0 0,0
21.05.2018 03:00:00 13,4 11,7 9 5 16 9 ENE 1017,8 0 0,1
21.05.2018 02:00:00 14,1 11,3 11 6 16 9 ESE 1019,1 0 0,0
21.05.2018 01:00:00 13,7 12,0 10 5 14 8 E 1019,4 0 0,0
21.05.2018 00:00:00 13,4 11,2 9 5 16 9 NE 1019,6 0 0,0
20.05.2018 23:00:00 13,8 12,3 11 6 15 8 NNE 1019,8 0 0,0
20.05.2018 22:00:00 13,7 12,0 5 3 7 4 N 1019,4 0 0,0
20.05.2018 21:00:00 15,4 11,9 5 3 21 11 ESE 1019,6 0 0,0
20.05.2018 20:00:00 16,2 11,0 14 8 26 14 ESE 1019,9 0 0,0
20.05.2018 19:00:00 16,6 12,5 4 2 46 25 E 1019,0 9 1,0
20.05.2018 18:00:00 22,0 10,7 18 10 30 16 NNE 1018,2 60 0,0
20.05.2018 17:00:00 21,5 10,5 16 9 31 17 NNE 1019,0 60 0,0
20.05.2018 16:00:00 20,8 9,3 14 8 28 15 NE 1020,0 60 0,0
20.05.2018 15:00:00 19,9 10,6 15 8 29 15 NE 1020,7 60 0,0
20.05.2018 14:00:00 19,0 9,5 18 10 43 23 NE 1021,6 60 0,0
20.05.2018 13:00:00 17,9 8,5 19 10 30 16 NE 1022,2 60 0,0
20.05.2018 12:00:00 15,8 11,4 11 6 16 9 N 1022,8 60 0,0
20.05.2018 11:00:00 11,5 11,5 8 5 13 7 NE 1023,1 60 0,0
20.05.2018 10:00:00 10,0 10,0 5 3 10 5 NE 1023,5 12 0,0
20.05.2018 09:00:00 8,7 8,7 9 5 13 7 NE 1023,8 0 0,0
20.05.2018 08:00:00 8,2 8,2 7 4 14 8 NE 1023,6 0 0,0
20.05.2018 07:00:00 7,5 7,5 9 5 12 7 N 1023,1 0 0,0
20.05.2018 06:00:00 6,8 6,8 10 5 13 7 NNW 1023,3 0 0,0
20.05.2018 05:00:00 6,6 6,6 9 5 14 7 NNE 1023,0 0 0,0
20.05.2018 04:00:00 6,6 6,5 8 5 11 6 NNE 1022,9 0 0,0
20.05.2018 03:00:00 7,8 7,7 9 5 14 7 NNE 1023,2 0 0,0
20.05.2018 02:00:00 7,5 7,2 11 6 16 9 NNE 1023,6 0 0,0
20.05.2018 01:00:00 8,0 7,3 10 6 20 11 NNE 1023,7 0 0,0
20.05.2018 00:00:00 9,0 8,2 12 7 21 11 N 1023,7 0 0,0
19.05.2018 23:00:00 8,5 7,4 11 6 18 10 N 1023,5 0 0,0
19.05.2018 22:00:00 9,4 7,0 11 6 16 9 N 1023,1 0 0,0
19.05.2018 21:00:00 12,5 7,2 11 6 18 10 N 1022,4 60 0,0
19.05.2018 20:00:00 13,9 6,5 14 8 21 11 N 1022,1 59 0,0
19.05.2018 19:00:00 14,7 5,9 13 7 24 13 NNE 1022,0 60 0,0
19.05.2018 18:00:00 14,6 5,9 14 7 23 12 N 1022,4 60 0,0
19.05.2018 17:00:00 13,9 6,2 10 5 24 13 NNE 1023,0 60 0,0
19.05.2018 16:00:00 12,8 5,8 13 7 19 11 NNE 1023,6 55 0,0
19.05.2018 15:00:00 11,7 5,1 8 4 18 10 ENE 1024,0 20 0,0
19.05.2018 14:00:00 10,5 5,3 11 6 18 10 N 1024,3 0 0,0
19.05.2018 13:00:00 10,5 5,5 10 5 16 9 NNE 1024,3 0 0,0

tt = Température de l'air
td = dewpoint
ff = Vitesse du vent
fx = gusts
dd = Direction du vent
ppp = reduced air pressure
sd = Ensoleillement
rr = Quantités de précipitations

stations d'obs. à proximité